Time;durP1;ratioP1;P1;durP2;ratioP2;P2;SDS_P1;SDS_P2;PMS_P1;PMS_P2;Temp;Humidity;BMP_temperature;BMP_pressure;BME280_temperature;BME280_humidity;BME280_pressure;Samples;Min_cycle;Max_cycle;Signal;HPM_P1;HPM_P2
2022/02/19 00:01:20;;;;;;;;;;;;;;;2.59;51.33;100573.63;117349;1183;23423;-54
2022/02/19 00:03:50;;;;;;;;;;;;;;;2.58;51.19;100578.27;117406;1185;21829;-53
2022/02/19 00:06:19;;;;;;;;;;;;;;;2.56;51.21;100578.77;117356;1185;21838;-58
2022/02/19 00:08:47;;;;;;;;;;;;;;;2.56;51.41;100582.05;117359;1185;21843;-57
2022/02/19 00:11:16;;;;;;;;;;;;;;;2.57;51.46;100582.94;117455;1185;21873;-53
2022/02/19 00:13:44;;;;;;;;;;;;;;;2.59;51.52;100576.05;117401;1183;21838;-53
2022/02/19 00:16:12;;;;;;;;;;;;;;;2.62;51.44;100573.36;117423;1183;22275;-53
2022/02/19 00:18:40;;;;;;;;;;;;;;;2.67;51.43;100575.38;117400;1185;22609;-53
2022/02/19 00:21:09;;;;;;;;;;;;;;;2.70;51.57;100577.70;117435;1183;21841;-58
2022/02/19 00:23:37;;;;;;;;;;;;;;;2.72;51.57;100576.17;117342;1186;21838;-58
2022/02/19 00:26:05;;;;;;;;;;;;;;;2.73;51.58;100578.79;117475;1183;21848;-53
2022/02/19 00:28:37;;;;;;;;;;;;;;;2.72;51.49;100581.89;117414;1182;23768;-56
2022/02/19 00:31:05;;;;;;;;;;;;;;;2.71;51.55;100583.77;117398;1185;21838;-53
2022/02/19 00:33:34;;;;;;;;;;;;;;;2.70;51.39;100590.34;117429;1186;21840;-56
2022/02/19 00:36:02;;;;;;;;;;;;;;;2.68;51.56;100593.41;117465;1185;21839;-53
2022/02/19 00:38:30;;;;;;;;;;;;;;;2.65;51.36;100595.24;117444;1183;21860;-58
2022/02/19 00:40:59;;;;;;;;;;;;;;;2.61;51.42;100594.13;117386;1185;22020;-53
2022/02/19 00:43:27;;;;;;;;;;;;;;;2.57;51.44;100592.64;117415;1185;22608;-56
2022/02/19 00:45:58;;;;;;;;;;;;;;;2.52;51.41;100591.65;117413;1183;21845;-56
2022/02/19 00:48:26;;;;;;;;;;;;;;;2.46;51.31;100589.95;117556;1183;21839;-52
2022/02/19 00:51:15;;;;;;;;;;;;;;;2.41;51.43;100591.56;117435;1185;21838;-56
2022/02/19 00:53:43;;;;;;;;;;;;;;;2.37;51.53;100595.29;117427;1185;22908;-53
2022/02/19 00:56:11;;;;;;;;;;;;;;;2.35;51.42;100594.19;117455;1183;21843;-53
2022/02/19 00:58:39;;;;;;;;;;;;;;;2.34;51.56;100590.38;117400;1182;21969;-53
2022/02/19 01:01:08;;;;;;;;;;;;;;;2.34;51.62;100589.15;117416;1185;21864;-57
2022/02/19 01:03:36;;;;;;;;;;;;;;;2.32;51.76;100583.05;117421;1186;21836;-54
2022/02/19 01:06:04;;;;;;;;;;;;;;;2.30;51.57;100585.42;117449;1185;23509;-57
2022/02/19 01:08:32;;;;;;;;;;;;;;;2.28;51.55;100578.26;117469;1181;21839;-58
2022/02/19 01:11:01;;;;;;;;;;;;;;;2.27;51.43;100575.98;117449;1186;21839;-58
2022/02/19 01:13:30;;;;;;;;;;;;;;;2.26;51.62;100568.69;117390;1183;23547;-58
2022/02/19 01:15:58;;;;;;;;;;;;;;;2.26;51.47;100569.38;117427;1185;22942;-53
2022/02/19 01:18:27;;;;;;;;;;;;;;;2.27;51.53;100570.09;117404;1185;21941;-54
2022/02/19 01:20:55;;;;;;;;;;;;;;;2.29;51.51;100568.58;117464;1185;21848;-57
2022/02/19 01:23:24;;;;;;;;;;;;;;;2.31;51.79;100563.61;117453;1185;21839;-57
2022/02/19 01:25:52;;;;;;;;;;;;;;;2.31;51.74;100559.30;117413;1183;22897;-55
2022/02/19 01:28:20;;;;;;;;;;;;;;;2.31;51.52;100556.52;117341;1183;23442;-58
2022/02/19 01:30:48;;;;;;;;;;;;;;;2.31;51.56;100554.09;117342;1186;22911;-54
2022/02/19 01:33:17;;;;;;;;;;;;;;;2.31;51.67;100554.61;117391;1185;21849;-58
2022/02/19 01:35:45;;;;;;;;;;;;;;;2.31;51.54;100558.07;117376;1182;21839;-54
2022/02/19 01:38:13;;;;;;;;;;;;;;;2.30;51.62;100558.58;117392;1182;24142;-58
2022/02/19 01:40:41;;;;;;;;;;;;;;;2.29;51.74;100551.45;118348;1182;21838;-56
2022/02/19 01:43:10;;;;;;;;;;;;;;;2.29;51.48;100552.67;117433;1186;22925;-54
2022/02/19 01:45:38;;;;;;;;;;;;;;;2.29;51.75;100549.88;117469;1183;21821;-54
2022/02/19 01:48:07;;;;;;;;;;;;;;;2.28;51.57;100547.77;117468;1185;21889;-54
2022/02/19 01:50:35;;;;;;;;;;;;;;;2.26;51.57;100550.84;117435;1185;21838;-55
2022/02/19 01:53:03;;;;;;;;;;;;;;;2.21;51.47;100552.13;117363;1186;21888;-54
2022/02/19 01:55:31;;;;;;;;;;;;;;;2.17;51.58;100545.80;117441;1180;21839;-54
2022/02/19 01:58:02;;;;;;;;;;;;;;;2.16;51.80;100544.73;117417;1182;21839;-54
2022/02/19 02:00:30;;;;;;;;;;;;;;;2.18;51.65;100547.02;117347;1185;24143;-54
2022/02/19 02:03:00;;;;;;;;;;;;;;;2.20;51.90;100552.96;117344;1182;21838;-54
2022/02/19 02:05:28;;;;;;;;;;;;;;;2.21;51.68;100548.66;117395;1185;21811;-52
2022/02/19 02:07:57;;;;;;;;;;;;;;;2.19;51.69;100552.26;117438;1186;21836;-58
2022/02/19 02:10:25;;;;;;;;;;;;;;;2.21;51.74;100548.13;117470;1185;21845;-58
2022/02/19 02:12:53;;;;;;;;;;;;;;;2.22;51.80;100552.48;117384;1185;23438;-54
2022/02/19 02:15:23;;;;;;;;;;;;;;;2.23;51.89;100554.24;117404;1182;21839;-57
2022/02/19 02:17:51;;;;;;;;;;;;;;;2.25;51.83;100552.02;117429;1185;23698;-57
2022/02/19 02:20:20;;;;;;;;;;;;;;;2.26;51.81;100557.44;117408;1176;21870;-57
2022/02/19 02:22:48;;;;;;;;;;;;;;;2.27;51.94;100558.84;117411;1182;21844;-57
2022/02/19 02:25:23;;;;;;;;;;;;;;;2.28;51.73;100559.20;117498;1182;21847;-57
2022/02/19 02:27:50;;;;;;;;;;;;;;;2.27;51.88;100560.41;117476;1186;24654;-57
2022/02/19 02:30:19;;;;;;;;;;;;;;;2.26;51.99;100565.57;117413;1183;21844;-57
2022/02/19 02:32:48;;;;;;;;;;;;;;;2.26;51.96;100565.73;117470;1185;21839;-53
2022/02/19 02:35:17;;;;;;;;;;;;;;;2.28;51.94;100556.77;117435;1185;22756;-53
2022/02/19 02:37:45;;;;;;;;;;;;;;;2.30;51.82;100556.14;117411;1185;21841;-57
2022/02/19 02:40:13;;;;;;;;;;;;;;;2.32;51.82;100554.09;117403;1186;21864;-57
2022/02/19 02:42:42;;;;;;;;;;;;;;;2.31;51.89;100547.33;117465;1183;23551;-54
2022/02/19 02:45:10;;;;;;;;;;;;;;;2.30;51.94;100542.45;117496;1185;21836;-55
2022/02/19 02:47:58;;;;;;;;;;;;;;;2.31;51.83;100541.29;117444;1182;21851;-58
2022/02/19 02:50:26;;;;;;;;;;;;;;;2.34;51.98;100537.88;117416;1184;21838;-58
2022/02/19 02:52:55;;;;;;;;;;;;;;;2.37;51.92;100524.45;117318;1185;21879;-58
2022/02/19 02:55:23;;;;;;;;;;;;;;;2.39;51.94;100530.56;117388;1183;21839;-53
2022/02/19 02:57:51;;;;;;;;;;;;;;;2.41;51.95;100530.77;117367;1182;22010;-53
2022/02/19 03:00:19;;;;;;;;;;;;;;;2.43;52.07;100528.23;117475;1182;21835;-57
2022/02/19 03:02:47;;;;;;;;;;;;;;;2.47;52.10;100534.90;117391;1182;22808;-54
2022/02/19 03:05:15;;;;;;;;;;;;;;;2.52;52.30;100536.91;117596;1183;23482;-57
2022/02/19 03:07:43;;;;;;;;;;;;;;;2.58;52.12;100538.08;117349;1182;21845;-53
2022/02/19 03:10:16;;;;;;;;;;;;;;;2.60;52.11;100543.33;117455;1186;21846;-57
2022/02/19 03:12:44;;;;;;;;;;;;;;;2.62;52.11;100541.99;117435;1183;21842;-58
2022/02/19 03:15:18;;;;;;;;;;;;;;;2.62;52.19;100542.67;117378;1182;21844;-54
2022/02/19 03:17:46;;;;;;;;;;;;;;;2.58;52.12;100544.67;117428;1185;21871;-57
2022/02/19 03:20:15;;;;;;;;;;;;;;;2.54;52.24;100545.63;117390;1186;21848;-55
2022/02/19 03:22:44;;;;;;;;;;;;;;;2.50;52.06;100549.17;117442;1183;21839;-53
2022/02/19 03:25:13;;;;;;;;;;;;;;;2.46;51.87;100548.20;117521;1185;21841;-54
2022/02/19 03:27:41;;;;;;;;;;;;;;;2.42;52.12;100548.29;117490;1185;22919;-57
2022/02/19 03:30:10;;;;;;;;;;;;;;;2.35;51.96;100549.18;117332;1182;23778;-54
2022/02/19 03:32:38;;;;;;;;;;;;;;;2.31;51.88;100551.48;117360;1185;21839;-57
2022/02/19 03:35:06;;;;;;;;;;;;;;;2.28;51.93;100555.05;117498;1183;23488;-54
2022/02/19 03:37:35;;;;;;;;;;;;;;;2.25;51.98;100554.98;117428;1186;24220;-54
2022/02/19 03:40:06;;;;;;;;;;;;;;;2.24;51.97;100560.30;117409;1182;23537;-53
2022/02/19 03:42:38;;;;;;;;;;;;;;;2.24;52.29;100560.48;117389;1183;21847;-54
2022/02/19 03:45:07;;;;;;;;;;;;;;;2.25;51.99;100560.35;117436;1182;23535;-57
2022/02/19 03:47:37;;;;;;;;;;;;;;;2.27;52.04;100561.42;117451;1183;22417;-53
2022/02/19 03:50:06;;;;;;;;;;;;;;;2.27;52.35;100550.69;117378;1186;24157;-52
2022/02/19 03:52:37;;;;;;;;;;;;;;;2.28;52.06;100551.23;117455;1185;22895;-57
2022/02/19 03:55:05;;;;;;;;;;;;;;;2.28;52.04;100554.52;117453;1182;24134;-53
2022/02/19 03:57:33;;;;;;;;;;;;;;;2.29;52.10;100552.84;117468;1183;22629;-54
2022/02/19 04:00:05;;;;;;;;;;;;;;;2.30;52.13;100550.94;117424;1183;21839;-58
2022/02/19 04:02:38;;;;;;;;;;;;;;;2.31;52.16;100552.02;117442;1182;23267;-58
2022/02/19 04:05:07;;;;;;;;;;;;;;;2.31;52.18;100552.88;117447;1185;21951;-55
2022/02/19 04:07:36;;;;;;;;;;;;;;;2.30;52.11;100555.29;117396;1183;21842;-59
2022/02/19 04:10:05;;;;;;;;;;;;;;;2.28;52.17;100554.53;117414;1182;22808;-52
2022/02/19 04:12:37;;;;;;;;;;;;;;;2.27;52.16;100556.05;117406;1185;23429;-57
2022/02/19 04:15:05;;;;;;;;;;;;;;;2.26;52.28;100564.88;117357;1185;21855;-52
2022/02/19 04:17:34;;;;;;;;;;;;;;;2.26;52.31;100568.16;117374;1185;21842;-53
2022/02/19 04:20:04;;;;;;;;;;;;;;;2.25;52.24;100572.80;117367;1182;21847;-52
2022/02/19 04:22:33;;;;;;;;;;;;;;;2.23;52.35;100569.65;117353;1184;21963;-58
2022/02/19 04:25:02;;;;;;;;;;;;;;;2.20;52.27;100572.52;117513;1185;21838;-57
2022/02/19 04:27:30;;;;;;;;;;;;;;;2.16;52.16;100576.73;117377;1182;21839;-53
2022/02/19 04:29:58;;;;;;;;;;;;;;;2.12;52.29;100576.98;117395;1183;23417;-56
2022/02/19 04:32:28;;;;;;;;;;;;;;;2.07;52.16;100580.50;117399;1185;22304;-53
2022/02/19 04:34:56;;;;;;;;;;;;;;;2.02;52.23;100582.80;117352;1182;21842;-58
2022/02/19 04:37:25;;;;;;;;;;;;;;;2.00;52.16;100582.74;117407;1185;21841;-54
2022/02/19 04:39:53;;;;;;;;;;;;;;;1.98;52.19;100586.16;117402;1186;21837;-54
2022/02/19 04:42:21;;;;;;;;;;;;;;;1.95;52.32;100590.05;117395;1185;22862;-58
2022/02/19 04:44:49;;;;;;;;;;;;;;;1.91;52.35;100595.52;117532;1183;23443;-53
2022/02/19 04:47:18;;;;;;;;;;;;;;;1.89;52.10;100606.19;117370;1182;21839;-59
2022/02/19 04:49:46;;;;;;;;;;;;;;;1.87;52.25;100603.35;117533;1185;22908;-57
2022/02/19 04:52:14;;;;;;;;;;;;;;;1.87;52.53;100599.38;117442;1185;21838;-58
2022/02/19 04:54:42;;;;;;;;;;;;;;;1.89;52.44;100588.35;117398;1185;21870;-58
2022/02/19 04:57:11;;;;;;;;;;;;;;;1.92;52.40;100586.17;117384;1182;21846;-53
2022/02/19 04:59:39;;;;;;;;;;;;;;;1.95;52.53;100587.31;117389;1183;21863;-58
2022/02/19 05:02:08;;;;;;;;;;;;;;;1.99;52.62;100587.41;117464;1183;21834;-53
2022/02/19 05:04:36;;;;;;;;;;;;;;;2.03;52.37;100580.05;117396;1183;21990;-53
2022/02/19 05:07:04;;;;;;;;;;;;;;;2.07;52.57;100580.33;117498;1182;23413;-59
2022/02/19 05:09:32;;;;;;;;;;;;;;;2.14;52.67;100590.90;117447;1186;23440;-58
2022/02/19 05:12:00;;;;;;;;;;;;;;;2.22;52.61;100594.40;117340;1184;21829;-57
2022/02/19 05:14:29;;;;;;;;;;;;;;;2.32;52.81;100589.28;117387;1182;23518;-57
2022/02/19 05:16:57;;;;;;;;;;;;;;;2.43;53.00;100588.85;117446;1182;23332;-59
2022/02/19 05:19:26;;;;;;;;;;;;;;;2.56;53.06;100590.00;117396;1185;23540;-58
2022/02/19 05:21:54;;;;;;;;;;;;;;;2.67;53.08;100587.48;117570;1185;21850;-54
2022/02/19 05:24:22;;;;;;;;;;;;;;;2.77;53.12;100590.50;117403;1184;21826;-54
2022/02/19 05:26:50;;;;;;;;;;;;;;;2.89;53.17;100593.54;117457;1185;22969;-55
2022/02/19 05:29:18;;;;;;;;;;;;;;;2.99;53.25;100581.63;117470;1185;21838;-54
2022/02/19 05:31:46;;;;;;;;;;;;;;;3.10;53.29;100565.73;117435;1183;21979;-54
2022/02/19 05:34:14;;;;;;;;;;;;;;;3.23;53.30;100562.38;117480;1182;21847;-54
2022/02/19 05:36:43;;;;;;;;;;;;;;;3.37;53.08;100561.93;117470;1182;21826;-54
2022/02/19 05:39:11;;;;;;;;;;;;;;;3.49;53.45;100558.73;117433;1182;21876;-54
2022/02/19 05:41:40;;;;;;;;;;;;;;;3.62;53.29;100561.58;117505;1185;21838;-58
2022/02/19 05:44:09;;;;;;;;;;;;;;;3.77;53.43;100566.89;117411;1182;21843;-58
2022/02/19 05:46:37;;;;;;;;;;;;;;;3.93;53.67;100574.29;117481;1182;21847;-58
2022/02/19 05:49:06;;;;;;;;;;;;;;;4.02;53.64;100570.80;117453;1185;21882;-55
2022/02/19 05:51:34;;;;;;;;;;;;;;;4.13;53.59;100569.42;117415;1182;21866;-57
2022/02/19 05:54:02;;;;;;;;;;;;;;;4.20;53.36;100572.85;117455;1185;21826;-57
2022/02/19 05:56:32;;;;;;;;;;;;;;;4.24;53.55;100570.14;117441;1185;21829;-56
2022/02/19 05:59:04;;;;;;;;;;;;;;;4.24;53.45;100584.88;117407;1185;23040;-54
2022/02/19 06:01:33;;;;;;;;;;;;;;;4.21;53.41;100589.35;117495;1185;21835;-54
2022/02/19 06:04:01;;;;;;;;;;;;;;;4.18;53.33;100590.36;117364;1185;21839;-57
2022/02/19 06:06:29;;;;;;;;;;;;;;;4.15;53.25;100595.34;117356;1185;21839;-54
2022/02/19 06:08:58;;;;;;;;;;;;;;;4.12;53.36;100595.13;117387;1185;21838;-54
2022/02/19 06:11:26;;;;;;;;;;;;;;;4.12;53.41;100592.16;117364;1185;21838;-54
2022/02/19 06:14:01;;;;;;;;;;;;;;;4.16;53.33;100591.56;117314;1185;21847;-57
2022/02/19 06:16:30;;;;;;;;;;;;;;;4.22;53.34;100601.52;117351;1185;21845;-55
2022/02/19 06:18:58;;;;;;;;;;;;;;;4.28;53.32;100604.25;117376;1185;21838;-55
2022/02/19 06:21:26;;;;;;;;;;;;;;;4.40;53.74;100606.71;117443;1182;22754;-55
2022/02/19 06:23:56;;;;;;;;;;;;;;;4.56;53.65;100599.48;117337;1182;21844;-55
2022/02/19 06:26:24;;;;;;;;;;;;;;;4.73;53.82;100595.76;117383;1183;21827;-58
2022/02/19 06:28:52;;;;;;;;;;;;;;;4.90;54.02;100587.83;117443;1182;21838;-56
2022/02/19 06:31:21;;;;;;;;;;;;;;;5.06;53.95;100585.43;117378;1185;21838;-55
2022/02/19 06:33:49;;;;;;;;;;;;;;;5.21;53.99;100578.33;117356;1182;21834;-55
2022/02/19 06:36:17;;;;;;;;;;;;;;;5.35;53.87;100574.32;117175;1185;21839;-57
2022/02/19 06:38:47;;;;;;;;;;;;;;;5.50;54.20;100576.59;117416;1186;21866;-57
2022/02/19 06:41:15;;;;;;;;;;;;;;;5.64;53.90;100576.41;117461;1182;22624;-55
2022/02/19 06:43:44;;;;;;;;;;;;;;;5.79;54.03;100564.02;117424;1185;22982;-58
2022/02/19 06:46:12;;;;;;;;;;;;;;;5.88;54.03;100551.58;117333;1185;23438;-56
2022/02/19 06:48:41;;;;;;;;;;;;;;;5.96;53.89;100555.66;117414;1185;24165;-56
2022/02/19 06:51:09;;;;;;;;;;;;;;;6.03;53.85;100559.23;117457;1182;21848;-58
2022/02/19 06:53:37;;;;;;;;;;;;;;;6.07;54.00;100549.88;117430;1183;21838;-56
2022/02/19 06:56:05;;;;;;;;;;;;;;;6.11;53.42;100546.08;117470;1185;22612;-56
2022/02/19 06:58:35;;;;;;;;;;;;;;;6.13;53.77;100539.30;117426;1185;21840;-55
2022/02/19 07:01:03;;;;;;;;;;;;;;;6.15;53.87;100556.02;117384;1182;21839;-56
2022/02/19 07:03:31;;;;;;;;;;;;;;;6.21;53.74;100559.05;117407;1185;23097;-58
2022/02/19 07:06:00;;;;;;;;;;;;;;;6.34;53.87;100543.82;117407;1185;21864;-56
2022/02/19 07:08:41;;;;;;;;;;;;;;;6.53;53.93;100539.77;117383;1176;21838;-58
2022/02/19 07:11:09;;;;;;;;;;;;;;;6.69;53.97;100544.58;117461;1183;21843;-56
2022/02/19 07:13:39;;;;;;;;;;;;;;;6.86;54.23;100547.83;117466;1186;21947;-55
2022/02/19 07:16:08;;;;;;;;;;;;;;;7.02;54.16;100530.81;117384;1185;22915;-56
2022/02/19 07:18:36;;;;;;;;;;;;;;;7.15;54.42;100518.99;117422;1186;22629;-56
2022/02/19 07:21:05;;;;;;;;;;;;;;;7.29;54.16;100497.75;117421;1183;21835;-58
2022/02/19 07:23:34;;;;;;;;;;;;;;;7.43;54.16;100480.34;117393;1183;23246;-55
2022/02/19 07:26:02;;;;;;;;;;;;;;;7.57;54.39;100460.80;117258;1185;23420;-58
2022/02/19 07:28:30;;;;;;;;;;;;;;;7.72;54.26;100461.70;117346;1185;21839;-57
2022/02/19 07:30:58;;;;;;;;;;;;;;;7.89;54.26;100462.40;117429;1185;21840;-57
2022/02/19 07:33:27;;;;;;;;;;;;;;;8.05;54.17;100460.48;117404;1182;22618;-57
2022/02/19 07:35:55;;;;;;;;;;;;;;;8.24;54.26;100470.95;117434;1186;21970;-58
2022/02/19 07:38:23;;;;;;;;;;;;;;;8.44;54.26;100475.45;117388;1185;23417;-56
2022/02/19 07:40:52;;;;;;;;;;;;;;;8.62;54.07;100463.02;117349;1185;21968;-58
2022/02/19 07:43:21;;;;;;;;;;;;;;;8.77;53.83;100470.15;117424;1185;21839;-58
2022/02/19 07:45:49;;;;;;;;;;;;;;;8.93;53.89;100471.50;117367;1185;21839;-57
2022/02/19 07:48:18;;;;;;;;;;;;;;;9.09;53.91;100484.91;117374;1185;21830;-55
2022/02/19 07:59:17;;;;;;;;;;;;;;;9.66;53.74;100493.35;117441;1183;23417;-56
2022/02/19 08:01:45;;;;;;;;;;;;;;;9.76;53.57;100490.13;117457;1185;21835;-55
2022/02/19 08:04:14;;;;;;;;;;;;;;;9.86;53.43;100488.30;117439;1182;21842;-58
2022/02/19 08:06:43;;;;;;;;;;;;;;;9.99;53.38;100491.70;117433;1182;21831;-58
2022/02/19 08:09:11;;;;;;;;;;;;;;;10.10;53.10;100485.12;117430;1185;23702;-56
2022/02/19 08:11:39;;;;;;;;;;;;;;;10.21;52.90;100488.54;117420;1185;23005;-58
2022/02/19 08:14:15;;;;;;;;;;;;;;;10.31;52.96;100494.77;117331;1185;21911;-57
2022/02/19 08:16:44;;;;;;;;;;;;;;;10.43;53.09;100502.21;117423;1185;21842;-56
2022/02/19 08:19:12;;;;;;;;;;;;;;;10.53;53.06;100502.31;117454;1185;21836;-57
2022/02/19 08:21:40;;;;;;;;;;;;;;;10.64;53.10;100496.92;117436;1185;21838;-55
2022/02/19 08:24:08;;;;;;;;;;;;;;;10.73;53.03;100488.58;117343;1184;21835;-58
2022/02/19 08:26:36;;;;;;;;;;;;;;;10.82;52.89;100492.86;117311;1185;21847;-59
2022/02/19 08:29:05;;;;;;;;;;;;;;;10.93;52.81;100485.35;117463;1182;21838;-56
2022/02/19 08:31:36;;;;;;;;;;;;;;;11.05;52.90;100493.81;117329;1183;21843;-56
2022/02/19 08:34:04;;;;;;;;;;;;;;;11.17;52.70;100491.39;117374;1185;23600;-56
2022/02/19 08:36:32;;;;;;;;;;;;;;;11.30;52.63;100491.39;117318;1182;23404;-57
2022/02/19 08:39:02;;;;;;;;;;;;;;;11.40;52.78;100487.74;117434;1185;23417;-58
2022/02/19 08:41:31;;;;;;;;;;;;;;;11.52;52.69;100477.55;117394;1185;21828;-58
2022/02/19 08:43:59;;;;;;;;;;;;;;;11.67;52.60;100479.63;117405;1185;21829;-58
2022/02/19 08:46:27;;;;;;;;;;;;;;;11.85;52.43;100485.84;117449;1182;21847;-55
2022/02/19 08:48:56;;;;;;;;;;;;;;;11.98;51.99;100492.68;117381;1182;21838;-58
2022/02/19 08:51:24;;;;;;;;;;;;;;;12.09;51.87;100497.11;117380;1185;21838;-56
2022/02/19 08:53:52;;;;;;;;;;;;;;;12.19;51.88;100487.60;117508;1183;21877;-58
2022/02/19 08:56:21;;;;;;;;;;;;;;;12.30;51.70;100468.06;117443;1182;21839;-60
2022/02/19 08:58:49;;;;;;;;;;;;;;;12.42;51.43;100454.47;117489;1182;22942;-56
2022/02/19 09:01:18;;;;;;;;;;;;;;;12.56;51.33;100448.41;117424;1186;24111;-57
2022/02/19 09:03:47;;;;;;;;;;;;;;;12.68;50.89;100441.31;117476;1186;22464;-57
2022/02/19 09:06:15;;;;;;;;;;;;;;;12.79;51.04;100435.98;117369;1185;21839;-58
2022/02/19 09:08:43;;;;;;;;;;;;;;;12.93;51.31;100434.98;117390;1182;23439;-59
2022/02/19 09:11:11;;;;;;;;;;;;;;;13.05;51.27;100434.91;117384;1185;21836;-57
2022/02/19 09:13:39;;;;;;;;;;;;;;;13.13;50.34;100425.77;117401;1183;23416;-58
2022/02/19 09:16:08;;;;;;;;;;;;;;;13.21;50.78;100415.36;117430;1185;21833;-56
2022/02/19 09:18:36;;;;;;;;;;;;;;;13.30;50.65;100417.27;117176;1185;23548;-56
2022/02/19 09:21:04;;;;;;;;;;;;;;;13.40;49.82;100416.53;117419;1185;23417;-56
2022/02/19 09:23:32;;;;;;;;;;;;;;;13.48;50.33;100417.04;117431;1185;21842;-58
2022/02/19 09:26:01;;;;;;;;;;;;;;;13.65;49.61;100410.48;117391;1185;21850;-57
2022/02/19 09:28:29;;;;;;;;;;;;;;;13.79;49.15;100410.84;117376;1182;22928;-58
2022/02/19 09:30:57;;;;;;;;;;;;;;;13.93;49.53;100401.48;117425;1186;22950;-58
2022/02/19 09:33:25;;;;;;;;;;;;;;;14.06;49.59;100394.82;117377;1185;21880;-57
2022/02/19 09:35:53;;;;;;;;;;;;;;;14.12;49.58;100397.30;117537;1185;21838;-58
2022/02/19 09:38:22;;;;;;;;;;;;;;;14.10;49.46;100393.30;117366;1185;21846;-57
2022/02/19 09:40:50;;;;;;;;;;;;;;;14.11;49.17;100389.90;117480;1185;21838;-58
2022/02/19 09:43:19;;;;;;;;;;;;;;;14.23;49.13;100391.89;117434;1182;21839;-56
2022/02/19 09:45:47;;;;;;;;;;;;;;;14.33;48.85;100394.27;117403;1186;21841;-57
2022/02/19 09:48:17;;;;;;;;;;;;;;;14.40;48.74;100387.87;117469;1185;22908;-56
2022/02/19 09:50:45;;;;;;;;;;;;;;;14.47;48.13;100379.94;117455;1185;21839;-58
2022/02/19 09:53:14;;;;;;;;;;;;;;;14.50;48.03;100381.23;117393;1186;23699;-56
2022/02/19 09:55:42;;;;;;;;;;;;;;;14.47;48.58;100370.05;117460;1185;22787;-58
2022/02/19 09:58:10;;;;;;;;;;;;;;;14.32;48.50;100355.09;117492;1183;21829;-57
2022/02/19 10:00:39;;;;;;;;;;;;;;;14.20;48.24;100355.80;117498;1182;23420;-57
2022/02/19 10:03:26;;;;;;;;;;;;;;;14.04;48.43;100355.16;117445;1182;21864;-59
2022/02/19 10:05:55;;;;;;;;;;;;;;;13.97;48.20;100353.42;117408;1185;21846;-59
2022/02/19 10:08:23;;;;;;;;;;;;;;;13.90;48.12;100360.13;117441;1182;22822;-59
2022/02/19 10:10:53;;;;;;;;;;;;;;;13.78;47.58;100369.41;117448;1185;21879;-59
2022/02/19 10:13:31;;;;;;;;;;;;;;;13.96;47.21;100365.56;117449;1185;21832;-59
2022/02/19 10:16:00;;;;;;;;;;;;;;;13.90;47.36;100359.59;117449;1185;22448;-57
2022/02/19 10:18:34;;;;;;;;;;;;;;;13.63;47.59;100368.22;117387;1186;22909;-57
2022/02/19 10:21:09;;;;;;;;;;;;;;;13.55;47.66;100357.33;117450;1185;23544;-60
2022/02/19 10:23:41;;;;;;;;;;;;;;;13.49;47.86;100359.75;117364;1183;23416;-56
2022/02/19 10:26:09;;;;;;;;;;;;;;;13.48;47.87;100351.31;117395;1185;23505;-58
2022/02/19 10:28:37;;;;;;;;;;;;;;;13.46;47.56;100354.53;117411;1189;21842;-58
2022/02/19 10:31:12;;;;;;;;;;;;;;;13.41;47.71;100369.45;117368;1185;23696;-56
2022/02/19 10:33:42;;;;;;;;;;;;;;;13.34;48.02;100368.34;117374;1183;23459;-56
2022/02/19 10:36:13;;;;;;;;;;;;;;;13.32;48.02;100357.30;117355;1185;24185;-58
2022/02/19 10:39:03;;;;;;;;;;;;;;;13.35;47.95;100344.53;117375;1184;23436;-56
2022/02/19 10:41:35;;;;;;;;;;;;;;;13.38;48.05;100348.88;117427;1182;23420;-58
2022/02/19 10:44:19;;;;;;;;;;;;;;;13.41;48.29;100348.84;117416;1185;21842;-57
2022/02/19 10:46:48;;;;;;;;;;;;;;;13.42;47.96;100343.89;117360;1182;23878;-58
2022/02/19 10:49:16;;;;;;;;;;;;;;;13.47;47.80;100344.10;117413;1182;21844;-58
2022/02/19 10:51:44;;;;;;;;;;;;;;;13.49;47.93;100340.52;117394;1185;22909;-56
2022/02/19 10:54:12;;;;;;;;;;;;;;;13.54;47.79;100333.38;117423;1185;21837;-57
2022/02/19 10:56:41;;;;;;;;;;;;;;;13.58;47.12;100332.39;117538;1185;22610;-56
2022/02/19 10:59:10;;;;;;;;;;;;;;;13.69;47.92;100328.02;117447;1185;22631;-58
2022/02/19 11:01:41;;;;;;;;;;;;;;;13.92;48.09;100330.61;117452;1185;22699;-59
2022/02/19 11:04:13;;;;;;;;;;;;;;;14.15;48.34;100334.39;117422;1185;23516;-57
2022/02/19 11:06:42;;;;;;;;;;;;;;;14.31;48.24;100326.73;117366;1185;22960;-57
2022/02/19 11:09:10;;;;;;;;;;;;;;;14.42;48.45;100316.33;117365;1185;21834;-59
2022/02/19 11:11:42;;;;;;;;;;;;;;;14.54;46.78;100317.59;117361;1182;21924;-58
2022/02/19 11:14:11;;;;;;;;;;;;;;;14.60;47.47;100319.50;117399;1185;21829;-59
2022/02/19 11:16:40;;;;;;;;;;;;;;;14.54;47.47;100316.86;119200;1185;21975;-57
2022/02/19 11:19:12;;;;;;;;;;;;;;;14.40;47.25;100311.96;117329;1185;23499;-58
2022/02/19 11:21:40;;;;;;;;;;;;;;;14.29;46.84;100296.77;117378;1185;21842;-59
2022/02/19 11:24:09;;;;;;;;;;;;;;;14.22;47.40;100301.73;117373;1185;21841;-57
2022/02/19 11:26:37;;;;;;;;;;;;;;;14.18;46.83;100304.33;117339;1185;22105;-58
2022/02/19 11:29:06;;;;;;;;;;;;;;;14.13;46.94;100288.75;117331;1185;23407;-57
2022/02/19 11:31:35;;;;;;;;;;;;;;;14.08;46.97;100298.09;117325;1185;22606;-58
2022/02/19 11:34:05;;;;;;;;;;;;;;;14.06;47.21;100293.17;117374;1185;21838;-58
2022/02/19 11:36:33;;;;;;;;;;;;;;;14.01;46.98;100301.26;117380;1185;21832;-59
2022/02/19 11:39:05;;;;;;;;;;;;;;;13.94;46.78;100298.61;117388;1185;21842;-59
2022/02/19 11:41:37;;;;;;;;;;;;;;;13.86;46.40;100307.86;117345;1185;21841;-57
2022/02/19 11:44:24;;;;;;;;;;;;;;;13.79;46.79;100303.77;117343;1185;23424;-59
2022/02/19 11:46:54;;;;;;;;;;;;;;;13.74;46.56;100302.87;117322;1185;24137;-57
2022/02/19 11:49:26;;;;;;;;;;;;;;;13.69;45.98;100298.79;117396;1185;23434;-57
2022/02/19 11:52:01;;;;;;;;;;;;;;;13.67;46.77;100299.35;117340;1185;23569;-57
2022/02/19 11:54:50;;;;;;;;;;;;;;;13.67;47.15;100300.40;117328;1185;23446;-60
2022/02/19 11:57:21;;;;;;;;;;;;;;;13.66;46.88;100305.38;117378;1185;23507;-58
2022/02/19 11:59:49;;;;;;;;;;;;;;;13.65;46.71;100305.06;117339;1182;22603;-57
2022/02/19 12:02:19;;;;;;;;;;;;;;;13.64;46.63;100296.08;117328;1185;21832;-58
2022/02/19 12:05:06;;;;;;;;;;;;;;;13.65;47.03;100293.77;117400;1185;24200;-58
2022/02/19 12:07:57;;;;;;;;;;;;;;;13.66;46.36;100292.85;117390;1185;21867;-59
2022/02/19 12:10:26;;;;;;;;;;;;;;;13.66;46.32;100281.21;117355;1186;21882;-59
2022/02/19 12:13:08;;;;;;;;;;;;;;;13.69;46.43;100280.63;117381;1186;21958;-57
2022/02/19 12:15:36;;;;;;;;;;;;;;;13.74;46.33;100277.13;117350;1185;21842;-57
2022/02/19 12:18:04;;;;;;;;;;;;;;;13.79;46.35;100276.12;117413;1185;21951;-59
2022/02/19 12:20:35;;;;;;;;;;;;;;;13.84;46.65;100271.05;117318;1185;22902;-57
2022/02/19 12:23:05;;;;;;;;;;;;;;;13.96;46.80;100264.18;117397;1185;24116;-59
2022/02/19 12:25:57;;;;;;;;;;;;;;;14.17;46.17;100265.00;117322;1185;22909;-59
2022/02/19 12:28:26;;;;;;;;;;;;;;;14.51;46.96;100257.29;117306;1185;23532;-58
2022/02/19 12:31:10;;;;;;;;;;;;;;;14.81;46.81;100266.83;117352;1186;23563;-58
2022/02/19 12:33:38;;;;;;;;;;;;;;;14.96;45.30;100258.38;117316;1185;23560;-57
2022/02/19 12:36:10;;;;;;;;;;;;;;;15.08;45.51;100259.95;117392;1185;23443;-58
2022/02/19 12:38:44;;;;;;;;;;;;;;;15.17;45.30;100260.16;117350;1182;21851;-57
2022/02/19 12:41:12;;;;;;;;;;;;;;;15.18;43.61;100260.14;117365;1185;22979;-58
2022/02/19 12:43:59;;;;;;;;;;;;;;;15.17;45.00;100264.25;117333;1185;22909;-57
2022/02/19 12:46:29;;;;;;;;;;;;;;;15.15;44.53;100274.73;117338;1185;22612;-59
2022/02/19 12:48:57;;;;;;;;;;;;;;;15.11;44.72;100250.65;117330;1185;22744;-60
2022/02/19 12:51:26;;;;;;;;;;;;;;;15.10;44.62;100244.16;117412;1185;22947;-60
2022/02/19 12:53:54;;;;;;;;;;;;;;;15.10;44.44;100232.67;117447;1185;23487;-60